M I D A S
Marine Information and Data Acquisition System
Tripno 1156 of the Zeeleeuw from 2006-08-30 06:22:36 to 2006-08-30 15:14:32
Back to CruiseResearch ActivitiesStationsMapUnderway DataData graphs

EquipmentUnitsComment
TimeDGPSUTC
LatitudeDGPSDM.mWGS84
LongitudeDGPSDM.mWGS84
HeadingGyrodeg 
SOGDGPSknotsSpeed over ground
COGDGPSdegCourse over ground
DepthEcho soundermeters200 kHz
Missing or incorrect values are displayed as -999
Navigation data collected by the RV Zeeleeuw from 2006-08-30 06:22:43 to 2006-08-30 15:25:18
                                                                                    Next 1000 lines
Time Latitude Longitude Heading SOG COG Depth
2006-08-30 06:22:53 51°13.597 2°56.09 109.8 1 287 8.9
2006-08-30 06:22:58 51°13.598 2°56.087 109.7 1.2 287 8.9
2006-08-30 06:23:03 51°13.599 2°56.084 109.9 1.4 289 9.1
2006-08-30 06:23:08 51°13.599 2°56.081 110.5 1.7 290 9.2
2006-08-30 06:23:13 51°13.601 2°56.076 111.2 1.9 290 -999
2006-08-30 06:23:19 51°13.602 2°56.072 111.9 2.1 293 -999
2006-08-30 06:23:24 51°13.603 2°56.067 112.6 2.2 292 -999
2006-08-30 06:23:29 51°13.604 2°56.062 113.2 2.4 293 -999
2006-08-30 06:23:34 51°13.606 2°56.057 113.8 2.5 293 -999
2006-08-30 06:23:39 51°13.607 2°56.052 114.1 2.6 294 -999
2006-08-30 06:23:44 51°13.609 2°56.046 114.3 2.7 293 -999
2006-08-30 06:23:49 51°13.61 2°56.04 114.5 2.8 292 -999
2006-08-30 06:23:54 51°13.612 2°56.034 114.5 2.9 293 -999
2006-08-30 06:23:59 51°13.613 2°56.028 114.5 3 292 -999
2006-08-30 06:24:04 51°13.615 2°56.021 114.6 3.1 292 -999
2006-08-30 06:24:09 51°13.617 2°56.014 114.7 3.2 292 -999
2006-08-30 06:24:14 51°13.618 2°56.008 115.1 3.3 292 -999
2006-08-30 06:24:19 51°13.62 2°56.001 115.8 3.3 292 -999
2006-08-30 06:24:24 51°13.622 2°55.994 116.5 3.4 293 -999
2006-08-30 06:24:30 51°13.625 2°55.986 117.9 3.5 295 -999
2006-08-30 06:24:34 51°13.626 2°55.98 119.4 3.5 295 -999
2006-08-30 06:24:39 51°13.628 2°55.973 121.1 3.5 296 -999
2006-08-30 06:24:44 51°13.631 2°55.966 122.1 3.5 297 -999
2006-08-30 06:24:49 51°13.633 2°55.959 123 3.5 299 -999
2006-08-30 06:24:54 51°13.635 2°55.953 123.4 3.5 299 -999
2006-08-30 06:24:59 51°13.638 2°55.946 123.9 3.5 300 -999
2006-08-30 06:25:04 51°13.64 2°55.939 124.1 3.5 300 -999
2006-08-30 06:25:09 51°13.643 2°55.933 124.4 3.5 301 -999
2006-08-30 06:25:14 51°13.645 2°55.926 124.7 3.5 301 -999
2006-08-30 06:25:19 51°13.648 2°55.92 124.8 3.5 303 -999
2006-08-30 06:25:24 51°13.65 2°55.913 125 3.5 302 -999
2006-08-30 06:25:29 51°13.653 2°55.907 125.1 3.5 303 -999
2006-08-30 06:25:34 51°13.656 2°55.9 125.1 3.5 303 -999
2006-08-30 06:25:39 51°13.659 2°55.893 124.8 3.5 303 -999
2006-08-30 06:25:44 51°13.661 2°55.887 124.3 3.5 302 -999
2006-08-30 06:25:49 51°13.664 2°55.88 123.8 3.5 303 -999
2006-08-30 06:25:54 51°13.666 2°55.874 123.1 3.5 301 -999
2006-08-30 06:25:59 51°13.669 2°55.867 122.5 3.5 302 -999
2006-08-30 06:26:04 51°13.671 2°55.861 121.4 3.5 301 -999
2006-08-30 06:26:09 51°13.674 2°55.854 120.7 3.4 300 -999
2006-08-30 06:26:14 51°13.676 2°55.848 119.7 3.3 298 -999
2006-08-30 06:26:19 51°13.678 2°55.841 119 3.3 299 -999
2006-08-30 06:26:24 51°13.68 2°55.835 118.1 3.2 297 -999
2006-08-30 06:26:29 51°13.682 2°55.829 116.8 3.1 297 -999
2006-08-30 06:26:34 51°13.684 2°55.823 115.8 3 295 -999
2006-08-30 06:26:39 51°13.686 2°55.817 114.7 3 295 -999
2006-08-30 06:26:44 51°13.687 2°55.811 114.1 2.9 294 -999
2006-08-30 06:26:50 51°13.689 2°55.804 113.1 2.9 293 -999
2006-08-30 06:26:54 51°13.69 2°55.8 111.8 2.8 291 -999
2006-08-30 06:26:59 51°13.691 2°55.794 110.9 2.8 290 -999
2006-08-30 06:27:04 51°13.693 2°55.788 110 2.8 290 -999
2006-08-30 06:27:09 51°13.694 2°55.783 109.3 2.7 288 -999
2006-08-30 06:27:14 51°13.695 2°55.777 108.3 2.7 288 -999
2006-08-30 06:27:19 51°13.696 2°55.772 107.5 2.7 287 -999
2006-08-30 06:27:24 51°13.698 2°55.766 107 2.7 287 -999
2006-08-30 06:27:29 51°13.699 2°55.761 106.3 2.6 286 -999
2006-08-30 06:27:34 51°13.7 2°55.755 105.7 2.6 286 -999
2006-08-30 06:27:39 51°13.701 2°55.75 105.1 2.5 286 -999
2006-08-30 06:27:44 51°13.702 2°55.745 104.8 2.4 286 -999
2006-08-30 06:27:49 51°13.702 2°55.741 104.6 2.1 286 -999
2006-08-30 06:27:54 51°13.703 2°55.737 103.7 1.7 284 -999
2006-08-30 06:27:59 51°13.703 2°55.734 102 1.4 287 -999
2006-08-30 06:28:04 51°13.703 2°55.733 99.9 1 284 -999
2006-08-30 06:28:09 51°13.704 2°55.731 98 0.8 290 14.2
2006-08-30 06:28:13 51°13.704 2°55.731 96 0.4 289 14.2
2006-08-30 06:28:18 51°13.704 2°55.73 93.7 0.2 332 14.2
2006-08-30 06:28:23 51°13.704 2°55.731 90.6 0.2 36 14.3
2006-08-30 06:28:28 51°13.705 2°55.732 86.8 0.4 53 14.2
2006-08-30 06:28:33 51°13.705 2°55.733 82.6 0.5 61 14.2
2006-08-30 06:28:37 51°13.706 2°55.734 78.1 0.7 61 14
2006-08-30 06:28:43 51°13.706 2°55.736 73.2 0.9 61 14.1
2006-08-30 06:28:48 51°13.707 2°55.738 67.3 1.1 56 14
2006-08-30 06:28:53 51°13.708 2°55.74 63.2 1.2 54 13.8
2006-08-30 06:28:58 51°13.709 2°55.743 58.2 1.4 51 14
2006-08-30 06:29:03 51°13.71 2°55.745 53 1.3 49 14.4
2006-08-30 06:29:07 51°13.711 2°55.746 48.6 0.9 40 14.4
2006-08-30 06:29:13 51°13.711 2°55.746 45.3 0.2 80 14.4
2006-08-30 06:29:18 51°13.711 2°55.746 40.6 0.2 231 14.4
2006-08-30 06:29:23 51°13.71 2°55.746 37.9 0.5 193 14.4
2006-08-30 06:29:28 51°13.709 2°55.745 35.2 0.6 209 14.4
2006-08-30 06:29:33 51°13.708 2°55.744 33.3 0.8 198 14.3
2006-08-30 06:29:38 51°13.707 2°55.743 31.9 1 205 14.2
2006-08-30 06:29:43 51°13.705 2°55.743 31.1 1.2 201 14.1
2006-08-30 06:29:48 51°13.704 2°55.742 30.5 1.3 205 -999
2006-08-30 06:29:54 51°13.702 2°55.74 30.2 1.3 202 -999
2006-08-30 06:29:59 51°13.701 2°55.74 30.4 0.9 202 -999
2006-08-30 06:30:04 51°13.701 2°55.74 29.9 0.5 195 -999
2006-08-30 06:30:09 51°13.701 2°55.74 27.6 0.1 132 -999
2006-08-30 06:30:14 51°13.701 2°55.74 23.9 0.4 28 -999
2006-08-30 06:30:19 51°13.702 2°55.741 19.4 0.7 18 4.7
2006-08-30 06:30:24 51°13.704 2°55.741 14.3 1 14 -999
2006-08-30 06:30:29 51°13.705 2°55.741 8.7 1.3 4 -999
2006-08-30 06:30:33 51°13.707 2°55.74 2.9 1.5 1 14.1
2006-08-30 06:30:38 51°13.709 2°55.74 358.2 1.7 356 4.7
2006-08-30 06:30:43 51°13.712 2°55.739 352.1 1.9 351 5.1
2006-08-30 06:30:48 51°13.715 2°55.737 346 2.2 342 13.5
2006-08-30 06:30:53 51°13.718 2°55.735 341.7 2.4 342 13.2
2006-08-30 06:30:58 51°13.721 2°55.733 337.2 2.6 336 13.2
2006-08-30 06:31:03 51°13.725 2°55.73 334 2.9 336 12.7
2006-08-30 06:31:09 51°13.73 2°55.726 332 3.2 332 12.2
2006-08-30 06:31:13 51°13.733 2°55.722 330.7 3.4 331 11.6
2006-08-30 06:31:18 51°13.737 2°55.718 330.2 3.6 328 11.4
2006-08-30 06:31:23 51°13.742 2°55.713 330 3.8 328 11.4
2006-08-30 06:31:28 51°13.746 2°55.708 329.6 4 326 11.3
2006-08-30 06:31:33 51°13.752 2°55.703 329.2 4.2 328 11.1
2006-08-30 06:31:38 51°13.757 2°55.697 329.4 4.4 327 11.2
2006-08-30 06:31:43 51°13.762 2°55.692 330 4.6 328 11.2
2006-08-30 06:31:48 51°13.768 2°55.686 330.9 4.8 328 11.3
2006-08-30 06:31:53 51°13.773 2°55.68 331.7 4.9 329 11.4
2006-08-30 06:31:59 51°13.781 2°55.673 331.7 5.1 328 11.6
2006-08-30 06:32:02 51°13.785 2°55.67 332.1 5.3 329 11.4
2006-08-30 06:32:07 51°13.791 2°55.664 332.6 5.4 329 11.6
2006-08-30 06:32:13 51°13.799 2°55.657 333.1 5.5 331 11.6
2006-08-30 06:32:18 51°13.806 2°55.652 333.8 5.6 331 11.8
2006-08-30 06:32:22 51°13.812 2°55.647 334.8 5.7 332 11.8
2006-08-30 06:32:28 51°13.821 2°55.64 336.1 6 333 12
2006-08-30 06:32:33 51°13.829 2°55.635 336.7 6.2 334 12
2006-08-30 06:32:38 51°13.837 2°55.629 337.6 6.3 335 11.8
2006-08-30 06:32:42 51°13.844 2°55.624 337.9 6.5 335 11.7
2006-08-30 06:32:48 51°13.854 2°55.617 337.7 6.5 335 11.4
2006-08-30 06:32:53 51°13.862 2°55.611 338 6.7 336 11.2
2006-08-30 06:32:58 51°13.871 2°55.605 338.7 6.8 336 11.3
2006-08-30 06:33:02 51°13.878 2°55.599 338.7 6.9 336 11.2
2006-08-30 06:33:09 51°13.89 2°55.591 338.7 7 336 11.7
2006-08-30 06:33:13 51°13.898 2°55.586 338.7 7.1 336 11.7
2006-08-30 06:33:18 51°13.906 2°55.58 339.1 7.1 337 11.7
2006-08-30 06:33:23 51°13.916 2°55.573 339.1 7.1 337 12.1
2006-08-30 06:33:28 51°13.925 2°55.567 339.3 7.3 337 11.6
2006-08-30 06:33:33 51°13.934 2°55.561 339.6 7.3 337 11.7
2006-08-30 06:33:38 51°13.944 2°55.554 339.2 7.3 336 11.9
2006-08-30 06:33:43 51°13.953 2°55.548 338.7 7.4 336 11.9
2006-08-30 06:33:48 51°13.962 2°55.541 338.8 7.4 336 11.9
2006-08-30 06:33:53 51°13.972 2°55.535 339.3 7.4 337 11.7
2006-08-30 06:33:58 51°13.981 2°55.528 339.2 7.5 335 11.6
2006-08-30 06:34:03 51°13.991 2°55.522 339.1 7.5 336 11.6
2006-08-30 06:34:09 51°14.002 2°55.514 339.4 7.5 336 11.6
2006-08-30 06:34:13 51°14.01 2°55.509 339.5 7.4 337 11.5
2006-08-30 06:34:18 51°14.019 2°55.502 339.6 7.4 337 11.4
2006-08-30 06:34:23 51°14.029 2°55.496 339.8 7.4 337 11.5
2006-08-30 06:34:28 51°14.039 2°55.49 340.3 7.4 338 11.4
2006-08-30 06:34:33 51°14.048 2°55.483 340.1 7.4 336 11.4
2006-08-30 06:34:38 51°14.057 2°55.476 339.6 7.4 337 11.4
2006-08-30 06:34:43 51°14.067 2°55.47 339.4 7.4 337 11.4
2006-08-30 06:34:48 51°14.076 2°55.463 338.8 7.4 336 11.4
2006-08-30 06:34:53 51°14.085 2°55.457 338.6 7.5 337 11.4
2006-08-30 06:34:57 51°14.093 2°55.451 338.4 7.6 336 11.4
2006-08-30 06:35:03 51°14.105 2°55.442 338.2 7.7 335 11.4
2006-08-30 06:35:09 51°14.116 2°55.433 336.8 7.7 334 11.4
2006-08-30 06:35:13 51°14.124 2°55.427 336 7.8 333 11.4
2006-08-30 06:35:18 51°14.133 2°55.418 335.5 7.8 332 11.4
2006-08-30 06:35:23 51°14.143 2°55.41 334.4 8 331 11.4
2006-08-30 06:35:28 51°14.153 2°55.401 332.6 8.1 329 11.3
2006-08-30 06:35:32 51°14.161 2°55.394 331.9 8.1 329 11.3
2006-08-30 06:35:37 51°14.17 2°55.384 330.2 8.2 327 11.3
2006-08-30 06:35:43 51°14.181 2°55.371 327.8 8.3 325 11.4
2006-08-30 06:35:48 51°14.191 2°55.36 326.7 8.4 324 11.4
2006-08-30 06:35:53 51°14.2 2°55.349 326.1 8.5 323 11.3
2006-08-30 06:35:58 51°14.21 2°55.337 325.5 8.5 322 11.4
2006-08-30 06:36:03 51°14.219 2°55.325 324.4 8.5 321 11.4
2006-08-30 06:36:08 51°14.228 2°55.313 323.6 8.7 320 11.4
2006-08-30 06:36:13 51°14.237 2°55.3 322.9 8.7 319 11.4
2006-08-30 06:36:18 51°14.246 2°55.288 322.3 8.7 318 11.4
2006-08-30 06:36:23 51°14.255 2°55.274 321 8.7 317 11.3
2006-08-30 06:36:28 51°14.264 2°55.261 319.4 8.7 315 11.3
2006-08-30 06:36:33 51°14.272 2°55.247 317.9 8.6 313 11.4
2006-08-30 06:36:38 51°14.28 2°55.232 316.8 8.7 312 11.4
2006-08-30 06:36:43 51°14.288 2°55.218 315.6 8.7 311 11.3
2006-08-30 06:36:48 51°14.296 2°55.203 315 8.7 311 11.4
2006-08-30 06:36:53 51°14.304 2°55.188 313.7 8.8 309 11.4
2006-08-30 06:36:57 51°14.31 2°55.176 312.8 8.9 309 11.3
2006-08-30 06:37:03 51°14.319 2°55.158 312.4 9 309 11.1
2006-08-30 06:37:08 51°14.327 2°55.142 312.2 9 308 11.3
2006-08-30 06:37:13 51°14.335 2°55.127 312.7 9 310 11.4
2006-08-30 06:37:18 51°14.344 2°55.111 313.5 9.1 310 11.7
2006-08-30 06:37:23 51°14.352 2°55.097 314.2 9.2 311 11.4
2006-08-30 06:37:28 51°14.361 2°55.082 315.1 9.2 312 11.6
2006-08-30 06:37:33 51°14.37 2°55.066 316.4 9.4 313 11.7
2006-08-30 06:37:38 51°14.379 2°55.051 317.1 9.4 313 12
2006-08-30 06:37:43 51°14.388 2°55.035 318.5 9.6 316 12
2006-08-30 06:37:48 51°14.397 2°55.022 320.6 9.5 316 11.7
2006-08-30 06:37:53 51°14.407 2°55.008 322.2 9.2 319 11.7
2006-08-30 06:37:58 51°14.418 2°54.995 323.6 9.3 321 11.7
2006-08-30 06:38:03 51°14.428 2°54.983 327.2 9.5 324 11.6
2006-08-30 06:38:08 51°14.439 2°54.971 328.7 9.5 325 11.5
2006-08-30 06:38:13 51°14.45 2°54.957 327.3 9.6 322 11.3
2006-08-30 06:38:18 51°14.46 2°54.945 325.9 9.7 322 11
2006-08-30 06:38:23 51°14.471 2°54.932 326.6 9.6 323 11.1
2006-08-30 06:38:28 51°14.482 2°54.921 328.3 9.6 325 10.8
2006-08-30 06:38:33 51°14.493 2°54.908 329.4 9.6 326 10.9
2006-08-30 06:38:38 51°14.505 2°54.896 329.5 9.7 326 10.9
2006-08-30 06:38:41 51°14.511 2°54.889 329.6 9.9 326 10.8
2006-08-30 06:38:47 51°14.526 2°54.874 329.7 10 328 10.5
2006-08-30 06:38:53 51°14.539 2°54.861 330.2 10.1 328 10.4
2006-08-30 06:38:58 51°14.552 2°54.849 331.7 10 331 10.7
2006-08-30 06:39:03 51°14.564 2°54.84 334.7 10.2 333 10.5
2006-08-30 06:39:08 51°14.577 2°54.83 337.2 10.1 334 10.6
2006-08-30 06:39:13 51°14.59 2°54.819 337.3 10.4 333 10.6
2006-08-30 06:39:18 51°14.603 2°54.809 335.3 10.5 333 10.4
2006-08-30 06:39:23 51°14.617 2°54.799 336.1 10.7 335 10.4
2006-08-30 06:39:28 51°14.631 2°54.789 338 10.8 336 10.5
2006-08-30 06:39:33 51°14.643 2°54.78 338.2 10.8 335 10.3
2006-08-30 06:39:38 51°14.657 2°54.771 337.8 10.6 336 10.2
2006-08-30 06:39:44 51°14.674 2°54.759 337.9 10.7 337 -999
2006-08-30 06:39:48 51°14.685 2°54.752 339.2 10.8 337 10.3
2006-08-30 06:39:53 51°14.699 2°54.742 339.3 10.8 336 10.5
2006-08-30 06:39:58 51°14.712 2°54.733 338.5 10.8 337 10.3
2006-08-30 06:40:03 51°14.727 2°54.723 338.5 10.9 338 10.4
2006-08-30 06:40:08 51°14.741 2°54.714 339.1 11.3 337 10.5
2006-08-30 06:40:12 51°14.753 2°54.706 339 11.3 337 10.3
2006-08-30 06:40:17 51°14.767 2°54.695 339.2 11.3 337 10.2
2006-08-30 06:40:23 51°14.785 2°54.684 338.6 11.2 337 10.2
2006-08-30 06:40:28 51°14.799 2°54.674 338.2 11.3 337 10.2
2006-08-30 06:40:33 51°14.813 2°54.665 337.8 11.4 336 10
2006-08-30 06:40:38 51°14.827 2°54.654 337.5 11.1 336 10.3
2006-08-30 06:40:43 51°14.842 2°54.643 336.7 11.1 335 10.3
2006-08-30 06:40:48 51°14.856 2°54.633 337.1 11.4 336 10.4
2006-08-30 06:40:53 51°14.87 2°54.622 337.4 11.3 336 10.5
2006-08-30 06:40:58 51°14.885 2°54.613 337.4 11.4 336 10.4
2006-08-30 06:41:03 51°14.9 2°54.603 337.7 11.4 336 10.3
2006-08-30 06:41:09 51°14.917 2°54.59 338 11.6 336 10.1
2006-08-30 06:41:14 51°14.932 2°54.579 337.9 11.7 335 10.1
2006-08-30 06:41:17 51°14.941 2°54.573 337.7 11.7 336 10
2006-08-30 06:41:23 51°14.958 2°54.56 338.2 11.7 336 10
2006-08-30 06:41:28 51°14.973 2°54.55 338.8 11.7 337 10.1
2006-08-30 06:41:33 51°14.988 2°54.539 339.1 11.8 336 9.9
2006-08-30 06:41:38 51°15.002 2°54.53 338.1 11.3 336 9.7
2006-08-30 06:41:41 51°15.011 2°54.523 337.3 11 336 -999
2006-08-30 06:41:49 51°15.032 2°54.509 338.1 10.8 337 -999
2006-08-30 06:41:54 51°15.047 2°54.5 338.2 10.4 338 -999
2006-08-30 06:41:59 51°15.06 2°54.49 338.2 10.6 336 9.6
2006-08-30 06:42:03 51°15.071 2°54.483 337.9 10.7 335 9.3
2006-08-30 06:42:08 51°15.085 2°54.472 337.5 10.9 335 9.6
2006-08-30 06:42:13 51°15.099 2°54.461 337.2 10.9 334 9.7
2006-08-30 06:42:18 51°15.112 2°54.452 337 10.9 336 9.6
2006-08-30 06:42:23 51°15.125 2°54.441 337.2 10.6 335 9.8
2006-08-30 06:42:28 51°15.14 2°54.431 338.6 10.9 336 9.9
2006-08-30 06:42:33 51°15.153 2°54.422 338.5 10.8 335 9.7
2006-08-30 06:42:38 51°15.167 2°54.412 339.1 10.8 337 9.8
2006-08-30 06:42:41 51°15.175 2°54.406 339.1 11 336 9.9
2006-08-30 06:42:48 51°15.195 2°54.392 338.6 11.2 336 10
2006-08-30 06:42:53 51°15.21 2°54.382 338.4 10.9 337 10.1
2006-08-30 06:42:58 51°15.222 2°54.372 338.5 10.9 335 9.9
2006-08-30 06:43:03 51°15.236 2°54.362 337.8 10.9 335 9.9
2006-08-30 06:43:08 51°15.249 2°54.352 337.1 11 335 9.8
2006-08-30 06:43:13 51°15.264 2°54.341 337.9 11 336 10.1
2006-08-30 06:43:18 51°15.278 2°54.332 338.2 11.1 337 10.1
2006-08-30 06:43:21 51°15.287 2°54.325 338.1 11.1 335 10.1
2006-08-30 06:43:28 51°15.306 2°54.311 338.3 11.2 335 10.2
2006-08-30 06:43:33 51°15.32 2°54.3 338 11.1 334 10.1
2006-08-30 06:43:38 51°15.335 2°54.289 338 11.2 334 10.3
2006-08-30 06:43:43 51°15.348 2°54.279 338.1 11 335 10.4
2006-08-30 06:43:48 51°15.362 2°54.268 338 11.3 334 10.3
2006-08-30 06:43:53 51°15.376 2°54.258 338.1 11.2 336 10.3
2006-08-30 06:43:58 51°15.389 2°54.248 338.6 11.3 336 10.1
2006-08-30 06:44:02 51°15.401 2°54.239 338.2 10.9 333 10.1
2006-08-30 06:44:08 51°15.417 2°54.225 338 11.3 334 10.5
2006-08-30 06:44:13 51°15.431 2°54.215 337.6 11 334 10.4
2006-08-30 06:44:18 51°15.445 2°54.204 337.5 11 334 10.6
2006-08-30 06:44:23 51°15.459 2°54.193 337.5 11.2 334 10.8
2006-08-30 06:44:28 51°15.473 2°54.182 338.2 11.4 335 10.9
2006-08-30 06:44:33 51°15.488 2°54.172 338.4 11.5 336 10.8
2006-08-30 06:44:37 51°15.499 2°54.164 339.2 11.3 335 11
2006-08-30 06:44:43 51°15.517 2°54.152 339.4 11.3 336 11.1
2006-08-30 06:44:49 51°15.533 2°54.139 338.9 11.3 333 11.2
2006-08-30 06:44:52 51°15.542 2°54.134 338.6 11.5 336 11.3
2006-08-30 06:44:57 51°15.557 2°54.122 337.3 11.3 335 11
2006-08-30 06:45:03 51°15.573 2°54.11 337.8 11.3 335 11.1
2006-08-30 06:45:08 51°15.588 2°54.098 337.8 11.4 332 11.2
2006-08-30 06:45:13 51°15.601 2°54.088 337.2 11.2 334 11
2006-08-30 06:45:19 51°15.618 2°54.074 336.9 11.1 335 -999
2006-08-30 06:45:23 51°15.628 2°54.066 337.4 10.8 335 11.4
2006-08-30 06:45:28 51°15.642 2°54.056 337.8 10.8 334 11.4
2006-08-30 06:45:33 51°15.656 2°54.044 336.8 11 333 11.6
2006-08-30 06:45:38 51°15.669 2°54.034 336.8 11 334 11.6
2006-08-30 06:45:43 51°15.684 2°54.023 337.4 11.3 334 11.7
2006-08-30 06:45:48 51°15.697 2°54.013 337.8 11.1 336 11.5
2006-08-30 06:45:53 51°15.712 2°54.001 338.1 11.1 333 11.6
2006-08-30 06:45:58 51°15.726 2°53.991 337.9 11.2 335 11.6
2006-08-30 06:46:03 51°15.74 2°53.98 338.2 11.1 334 11.8
2006-08-30 06:46:08 51°15.754 2°53.97 338.1 11.2 335 11.6
2006-08-30 06:46:13 51°15.767 2°53.96 338 11.2 335 11.6
2006-08-30 06:46:17 51°15.779 2°53.952 338.6 11.3 337 11.9
2006-08-30 06:46:24 51°15.799 2°53.939 339.8 11.2 338 11.7
2006-08-30 06:46:28 51°15.811 2°53.931 340.8 11.1 337 11.8
2006-08-30 06:46:33 51°15.824 2°53.922 340.4 11.3 337 11.6
2006-08-30 06:46:38 51°15.84 2°53.912 340.4 11.1 338 11.9
2006-08-30 06:46:43 51°15.853 2°53.904 340.9 11.1 338 11.8
2006-08-30 06:46:48 51°15.868 2°53.893 340.7 11.3 336 11.9
2006-08-30 06:46:53 51°15.882 2°53.884 340.4 11.4 337 11.9
2006-08-30 06:46:58 51°15.897 2°53.875 340.4 11.3 337 11.9
2006-08-30 06:47:03 51°15.912 2°53.864 341 11.4 338 12
2006-08-30 06:47:08 51°15.926 2°53.855 341 11.3 337 11.7
2006-08-30 06:47:13 51°15.941 2°53.845 340.4 11.2 336 11.9
2006-08-30 06:47:18 51°15.956 2°53.835 340.5 11.2 338 12.1
2006-08-30 06:47:23 51°15.97 2°53.827 341.1 11.3 339 12
2006-08-30 06:47:29 51°15.987 2°53.814 341.1 11.2 337 12
2006-08-30 06:47:33 51°15.998 2°53.807 340.4 11.3 337 12.1
2006-08-30 06:47:38 51°16.013 2°53.797 340.4 11.4 336 12.3
2006-08-30 06:47:43 51°16.028 2°53.787 340.4 11.4 337 12.4
2006-08-30 06:47:48 51°16.041 2°53.778 340.4 11.3 338 12.2
2006-08-30 06:47:53 51°16.056 2°53.769 341.8 11 340 12.3
2006-08-30 06:47:57 51°16.068 2°53.763 342.8 11 341 12.2
2006-08-30 06:48:03 51°16.084 2°53.754 343.3 10.9 341 12.2
2006-08-30 06:48:08 51°16.1 2°53.746 344 11.2 341 12.3
2006-08-30 06:48:13 51°16.114 2°53.737 343.7 11.2 340 12.2
2006-08-30 06:48:19 51°16.131 2°53.728 343.3 11.2 340 12.4
2006-08-30 06:48:23 51°16.143 2°53.72 343.6 11.2 340 12.3
2006-08-30 06:48:28 51°16.157 2°53.713 342.9 11.2 341 12.3
2006-08-30 06:48:33 51°16.173 2°53.703 343.5 11.1 340 12.6
2006-08-30 06:48:37 51°16.184 2°53.697 344.2 11.3 342 12.6
2006-08-30 06:48:43 51°16.203 2°53.687 344.8 11.4 341 12.8
2006-08-30 06:48:48 51°16.217 2°53.679 345.1 11.4 340 12.5
2006-08-30 06:48:53 51°16.231 2°53.671 344.3 11.3 341 12.4
2006-08-30 06:48:58 51°16.246 2°53.664 344.7 11.2 342 12.4
2006-08-30 06:49:02 51°16.259 2°53.658 344.7 11.4 343 12.3
2006-08-30 06:49:08 51°16.276 2°53.65 346 11.3 343 12.3
2006-08-30 06:49:13 51°16.292 2°53.642 345.6 11.2 342 12.6
2006-08-30 06:49:17 51°16.303 2°53.635 344.9 11.3 341 12.6
2006-08-30 06:49:23 51°16.321 2°53.625 344.1 11.4 341 12.7
2006-08-30 06:49:28 51°16.336 2°53.617 344 11.5 341 12.6
2006-08-30 06:49:33 51°16.351 2°53.61 344.6 11.6 342 12.7
2006-08-30 06:49:39 51°16.369 2°53.6 344.8 11.6 342 12.8
2006-08-30 06:49:43 51°16.381 2°53.594 344.7 11.7 344 -999
2006-08-30 06:49:49 51°16.4 2°53.586 346.3 11.1 344 -999
2006-08-30 06:49:53 51°16.412 2°53.581 345.4 11.2 342 12.2
2006-08-30 06:49:58 51°16.427 2°53.573 344.7 11.2 342 12.6
2006-08-30 06:50:03 51°16.44 2°53.566 344.7 11 343 12.5
2006-08-30 06:50:08 51°16.455 2°53.558 345 10.9 343 12.7
2006-08-30 06:50:13 51°16.47 2°53.55 345.4 11.1 342 12.8
2006-08-30 06:50:18 51°16.482 2°53.544 345 10.6 343 12.5
2006-08-30 06:50:24 51°16.501 2°53.535 345.4 10.7 343 12.6
2006-08-30 06:50:28 51°16.512 2°53.529 345.4 10.9 342 12.7
2006-08-30 06:50:33 51°16.525 2°53.521 344.4 10.6 340 12.4
2006-08-30 06:50:38 51°16.54 2°53.513 343.8 10.8 341 12.6
2006-08-30 06:50:43 51°16.554 2°53.506 343.3 11 339 12.4
2006-08-30 06:50:48 51°16.569 2°53.499 343.9 11.1 343 12.6
2006-08-30 06:50:52 51°16.58 2°53.493 345.2 11 345 12.2
2006-08-30 06:50:59 51°16.602 2°53.486 346.6 10.8 345 -999
2006-08-30 06:51:04 51°16.616 2°53.48 348.5 10.9 346 12.4
2006-08-30 06:51:07 51°16.624 2°53.477 348.3 11.1 346 12.5
2006-08-30 06:51:13 51°16.643 2°53.469 348.7 11 347 12.4
2006-08-30 06:51:18 51°16.656 2°53.464 349.1 11.1 347 12
2006-08-30 06:51:23 51°16.671 2°53.459 349.8 10.8 348 12.1
2006-08-30 06:51:28 51°16.687 2°53.453 349.6 10.9 347 12.2
2006-08-30 06:51:33 51°16.701 2°53.447 349.2 10.8 346 -999
2006-08-30 06:51:39 51°16.719 2°53.442 349.2 10.7 347 12.2
2006-08-30 06:51:43 51°16.731 2°53.437 349.4 10.7 347 12.3
2006-08-30 06:51:48 51°16.744 2°53.431 348.5 10.7 345 12.2
2006-08-30 06:51:53 51°16.76 2°53.424 348.3 10.9 345 12.2
2006-08-30 06:51:58 51°16.775 2°53.418 348.6 11.3 346 12.2
2006-08-30 06:52:01 51°16.784 2°53.415 348.6 11.4 347 12.2
2006-08-30 06:52:08 51°16.805 2°53.407 348.7 11.2 348 12.1
2006-08-30 06:52:14 51°16.822 2°53.401 349.5 11.1 349 12.1
2006-08-30 06:52:19 51°16.836 2°53.396 350.1 10.5 348 -999
2006-08-30 06:52:23 51°16.848 2°53.392 349.8 10.6 348 12
2006-08-30 06:52:28 51°16.864 2°53.387 349.9 10.7 348 11.6
2006-08-30 06:52:33 51°16.879 2°53.382 350.8 10.9 348 11.4
2006-08-30 06:52:38 51°16.894 2°53.377 351 11.1 349 10.8
2006-08-30 06:52:43 51°16.908 2°53.373 351.9 10.9 350 10.1
2006-08-30 06:52:48 51°16.924 2°53.369 352.9 11.1 351 9.7
2006-08-30 06:52:53 51°16.939 2°53.364 353 11.2 350 9.3
2006-08-30 06:52:58 51°16.954 2°53.36 353.5 11.3 351 8.9
2006-08-30 06:53:03 51°16.97 2°53.357 353.7 11.3 351 8.9
2006-08-30 06:53:08 51°16.986 2°53.352 353.3 11.5 349 8.9
2006-08-30 06:53:13 51°17.001 2°53.348 353.1 11.6 351 9.1
2006-08-30 06:53:18 51°17.016 2°53.344 353 11.4 349 9.1
2006-08-30 06:53:23 51°17.033 2°53.339 353.6 11.4 352 9.3
2006-08-30 06:53:28 51°17.048 2°53.334 353.5 11.5 349 9.2
2006-08-30 06:53:32 51°17.061 2°53.331 353.5 11.6 350 9.4
2006-08-30 06:53:37 51°17.077 2°53.326 353.3 11.7 349 9.4
2006-08-30 06:53:43 51°17.096 2°53.322 353.6 11.7 350 9.4
2006-08-30 06:53:48 51°17.113 2°53.318 353.5 11.6 352 9.6
2006-08-30 06:53:53 51°17.127 2°53.315 354.8 11.5 352 9.6
2006-08-30 06:53:58 51°17.143 2°53.31 353.9 11.5 350 9.6
2006-08-30 06:54:03 51°17.16 2°53.305 353.1 11.4 349 9.6
2006-08-30 06:54:08 51°17.174 2°53.301 353 11.6 352 9.3
2006-08-30 06:54:13 51°17.192 2°53.299 355.9 11.8 353 9.6
2006-08-30 06:54:18 51°17.206 2°53.296 356.3 11.7 353 9.4
2006-08-30 06:54:23 51°17.222 2°53.293 356.7 11.6 353 9.6
2006-08-30 06:54:28 51°17.239 2°53.291 357.8 11.6 355 9.8
2006-08-30 06:54:33 51°17.255 2°53.289 358.6 11.7 356 10
2006-08-30 06:54:38 51°17.271 2°53.287 359.5 11.8 356 10.1
2006-08-30 06:54:43 51°17.287 2°53.286 -999 11.8 356 10.1
2006-08-30 06:54:47 51°17.301 2°53.284 0.4 11.8 357 10.2
2006-08-30 06:54:53 51°17.32 2°53.282 0.7 11.9 357 10.2
2006-08-30 06:54:59 51°17.341 2°53.282 0.7 11.8 357 10.2
2006-08-30 06:55:03 51°17.354 2°53.28 0.8 11.8 356 10.3
2006-08-30 06:55:08 51°17.369 2°53.279 -999 11.8 357 10.3
2006-08-30 06:55:13 51°17.386 2°53.277 0.5 11.8 355 10
2006-08-30 06:55:18 51°17.402 2°53.277 0.7 11.7 359 10
2006-08-30 06:55:23 51°17.42 2°53.277 1.4 11.5 -999 10.3
2006-08-30 06:55:28 51°17.434 2°53.277 2.1 11.6 2 9.8
2006-08-30 06:55:33 51°17.45 2°53.277 4.4 11.5 2 9.9
2006-08-30 06:55:38 51°17.465 2°53.28 5.9 11.4 4 10.1
2006-08-30 06:55:43 51°17.483 2°53.284 8.8 11.4 5 10.4
2006-08-30 06:55:49 51°17.499 2°53.287 11.1 11.3 9 10.4
2006-08-30 06:55:54 51°17.515 2°53.293 12.1 11.3 9 -999
2006-08-30 06:55:59 51°17.531 2°53.299 12.9 10.9 11 -999
2006-08-30 06:56:03 51°17.543 2°53.303 14.1 10.8 12 -999
2006-08-30 06:56:08 51°17.558 2°53.307 15.2 11.1 12 10.3
2006-08-30 06:56:13 51°17.573 2°53.312 15.1 11.2 12 10.4
2006-08-30 06:56:18 51°17.588 2°53.316 14.5 11.4 12 10.1
2006-08-30 06:56:23 51°17.603 2°53.321 15.9 11.4 11 10.4
2006-08-30 06:56:28 51°17.62 2°53.328 15.9 11.6 12 10.8
2006-08-30 06:56:33 51°17.635 2°53.333 15.2 11.5 12 11
2006-08-30 06:56:38 51°17.65 2°53.337 16.3 11.7 13 11.1
2006-08-30 06:56:43 51°17.665 2°53.342 15.4 11.4 11 10.9
2006-08-30 06:56:48 51°17.682 2°53.349 15.7 11.6 14 11
2006-08-30 06:56:53 51°17.698 2°53.354 14.8 11.7 12 10.9
2006-08-30 06:56:58 51°17.714 2°53.36 15.8 11.8 14 10.7
2006-08-30 06:57:03 51°17.729 2°53.364 15.2 11.7 10 10.4
2006-08-30 06:57:08 51°17.745 2°53.372 15.4 11.8 12 11
2006-08-30 06:57:14 51°17.763 2°53.376 15.4 11.4 12 -999
2006-08-30 06:57:19 51°17.778 2°53.382 17.4 11.5 13 10.3
2006-08-30 06:57:23 51°17.79 2°53.387 16.6 11.4 13 10.3
2006-08-30 06:57:28 51°17.806 2°53.394 17.5 11.3 14 10.6
2006-08-30 06:57:33 51°17.821 2°53.4 16.6 11.4 15 10.9
2006-08-30 06:57:38 51°17.836 2°53.404 17 11.3 11 10.8
2006-08-30 06:57:43 51°17.853 2°53.41 15.5 11.4 11 11.2
2006-08-30 06:57:48 51°17.868 2°53.413 14.5 11.5 9 11
2006-08-30 06:57:53 51°17.883 2°53.419 14.2 11.5 12 10.9
2006-08-30 06:57:58 51°17.899 2°53.424 14.5 11.5 10 11
2006-08-30 06:58:03 51°17.915 2°53.428 13.7 11.5 8 11.1
2006-08-30 06:58:08 51°17.931 2°53.432 13.7 11.7 10 10.9
2006-08-30 06:58:13 51°17.946 2°53.436 14 11.6 8 10.9
2006-08-30 06:58:18 51°17.963 2°53.441 13.9 11.7 11 11.3
2006-08-30 06:58:23 51°17.979 2°53.445 14.4 11.7 9 11.4
2006-08-30 06:58:28 51°17.994 2°53.449 14.4 11.7 10 11.2
2006-08-30 06:58:34 51°18.013 2°53.456 15.6 11.7 11 11.3
2006-08-30 06:58:37 51°18.023 2°53.459 15.1 11.8 10 11.3
2006-08-30 06:58:43 51°18.042 2°53.463 14.3 11.8 9 11.3
2006-08-30 06:58:48 51°18.058 2°53.467 13.7 11.8 9 11.3
2006-08-30 06:58:53 51°18.075 2°53.473 13.8 11.8 11 11.3
2006-08-30 06:58:58 51°18.091 2°53.477 14.5 11.8 8 11.3
2006-08-30 06:59:03 51°18.108 2°53.482 14.9 11.8 11 11.4
2006-08-30 06:59:08 51°18.124 2°53.486 14.9 11.8 10 11.3
2006-08-30 06:59:12 51°18.136 2°53.491 15 11.9 12 11.1
2006-08-30 06:59:18 51°18.154 2°53.494 15.1 11.7 11 -999
2006-08-30 06:59:24 51°18.173 2°53.502 15.9 11.3 13 10.9
2006-08-30 06:59:28 51°18.186 2°53.505 14.5 11.3 7 10.9
2006-08-30 06:59:34 51°18.205 2°53.511 14.2 11.4 11 11
2006-08-30 06:59:38 51°18.216 2°53.513 13.6 11.4 7 11.3
2006-08-30 06:59:43 51°18.233 2°53.518 12.8 11.4 9 11.6
2006-08-30 06:59:47 51°18.246 2°53.519 11.9 11 6 11.6
2006-08-30 06:59:53 51°18.264 2°53.523 11.5 11.1 7 11.6
2006-08-30 06:59:58 51°18.279 2°53.526 10.9 11.1 7 -999
2006-08-30 07:00:04 51°18.298 2°53.53 10.8 11.2 7 11.8
2006-08-30 07:00:09 51°18.314 2°53.533 12.3 11.3 8 11.9
2006-08-30 07:00:13 51°18.326 2°53.535 10.8 11.4 6 11.8
2006-08-30 07:00:18 51°18.34 2°53.539 12.1 11.1 9 11.8
2006-08-30 07:00:24 51°18.36 2°53.542 10.8 11.2 6 11.7
2006-08-30 07:00:28 51°18.372 2°53.545 12.3 10.9 8 11.9
2006-08-30 07:00:34 51°18.39 2°53.546 9.9 11.2 2 11.7
2006-08-30 07:00:38 51°18.403 2°53.545 7.2 11.3 359 11.8
2006-08-30 07:00:42 51°18.415 2°53.545 4.7 11.3 358 11.9
2006-08-30 07:00:48 51°18.434 2°53.542 0.7 11.4 355 12.1
2006-08-30 07:00:52 51°18.447 2°53.539 358 11.5 352 -999
2006-08-30 07:00:58 51°18.464 2°53.533 355.6 11 349 12.1
2006-08-30 07:01:03 51°18.479 2°53.528 353.4 11 347 11.9
2006-08-30 07:01:09 51°18.499 2°53.52 349.8 11.2 346 12
2006-08-30 07:01:14 51°18.51 2°53.514 348.6 10.8 345 -999
2006-08-30 07:01:19 51°18.525 2°53.507 348.1 10.3 344 -999
2006-08-30 07:01:24 51°18.54 2°53.499 345.2 10.4 340 -999
2006-08-30 07:01:28 51°18.55 2°53.492 343.9 10.4 339 11.9
2006-08-30 07:01:33 51°18.561 2°53.483 342.3 10 336 11.9
2006-08-30 07:01:39 51°18.578 2°53.472 341.2 10.2 337 11.9
2006-08-30 07:01:42 51°18.586 2°53.466 340.6 10.6 335 12.2
2006-08-30 07:01:48 51°18.602 2°53.454 339.8 10.9 335 12.2
2006-08-30 07:01:53 51°18.616 2°53.443 339.5 11.2 334 12.4
2006-08-30 07:01:58 51°18.629 2°53.433 339 11.2 334 12.3
2006-08-30 07:02:03 51°18.644 2°53.421 339.1 11.3 334 12.4
2006-08-30 07:02:08 51°18.657 2°53.41 338.8 11.3 334 12.2
2006-08-30 07:02:13 51°18.672 2°53.4 338.9 11.3 335 12.5
2006-08-30 07:02:18 51°18.687 2°53.389 339.4 11.3 335 12.4
2006-08-30 07:02:23 51°18.701 2°53.378 339.6 11.4 335 12.5
2006-08-30 07:02:28 51°18.715 2°53.367 339.2 11.4 334 12.3
2006-08-30 07:02:33 51°18.729 2°53.355 338.3 11.5 333 12.2
2006-08-30 07:02:38 51°18.743 2°53.345 338.4 11.5 334 12.2
2006-08-30 07:02:44 51°18.761 2°53.332 338.7 11.5 334 12.3
2006-08-30 07:02:48 51°18.773 2°53.323 339.1 11.5 336 12.5
2006-08-30 07:02:53 51°18.786 2°53.313 339.5 11.1 335 12.4
2006-08-30 07:02:58 51°18.801 2°53.303 339.5 11.2 335 12.5
2006-08-30 07:03:03 51°18.814 2°53.292 339.2 11.3 333 12.4
2006-08-30 07:03:08 51°18.829 2°53.281 339.4 11.4 334 12.6
2006-08-30 07:03:13 51°18.843 2°53.27 339.5 11.5 335 12.5
2006-08-30 07:03:18 51°18.858 2°53.26 340.2 11.6 336 12.5
2006-08-30 07:03:23 51°18.872 2°53.249 340.4 11.4 335 12.4
2006-08-30 07:03:28 51°18.887 2°53.238 340.3 11.6 335 12.5
2006-08-30 07:03:33 51°18.901 2°53.228 340.4 11.6 335 12.4
2006-08-30 07:03:39 51°18.917 2°53.219 340.4 10 338 -999
2006-08-30 07:03:44 51°18.93 2°53.211 341.3 9 340 -999
2006-08-30 07:03:49 51°18.939 2°53.205 342.5 8.4 338 -999
2006-08-30 07:03:53 51°18.947 2°53.199 341.5 7.9 337 12.1
2006-08-30 07:03:58 51°18.956 2°53.192 340.3 7.6 336 12.3
2006-08-30 07:04:03 51°18.966 2°53.185 339.6 7.2 336 12.7
2006-08-30 07:04:08 51°18.974 2°53.179 339.3 6.7 336 12.8
2006-08-30 07:04:13 51°18.981 2°53.174 339.5 6.5 337 12.9
2006-08-30 07:04:18 51°18.989 2°53.169 339.6 5.8 335 13.1
2006-08-30 07:04:23 51°18.996 2°53.164 339.5 5.4 336 13.1
2006-08-30 07:04:28 51°19.002 2°53.159 338.7 4.9 335 13.1
2006-08-30 07:04:33 51°19.008 2°53.156 338.2 4.3 339 13
2006-08-30 07:04:38 51°19.014 2°53.152 338.8 3.9 339 12.9
2006-08-30 07:04:44 51°19.019 2°53.148 338.9 3.7 339 12.9
2006-08-30 07:04:48 51°19.022 2°53.146 338.8 3.4 337 12.8
2006-08-30 07:04:53 51°19.026 2°53.144 339.4 3.2 339 12.8
2006-08-30 07:04:58 51°19.03 2°53.141 339.1 3.1 338 12.9
2006-08-30 07:05:03 51°19.034 2°53.139 339.3 2.9 339 13
2006-08-30 07:05:08 51°19.038 2°53.137 339.6 2.8 344 13
2006-08-30 07:05:13 51°19.041 2°53.136 340.1 2.4 343 13.1
2006-08-30 07:05:18 51°19.043 2°53.135 341.1 2.3 345 12.9
2006-08-30 07:05:23 51°19.046 2°53.134 341.7 2.4 348 12.9
2006-08-30 07:05:28 51°19.049 2°53.133 342.4 2.4 348 12.9
2006-08-30 07:05:33 51°19.052 2°53.132 343.1 2.3 349 12.9
2006-08-30 07:05:39 51°19.056 2°53.132 344.1 2.3 351 12.8
2006-08-30 07:05:42 51°19.058 2°53.13 344.7 2.3 349 12.8
2006-08-30 07:05:48 51°19.062 2°53.13 344.9 2.2 347 12.9
2006-08-30 07:05:53 51°19.065 2°53.129 344.7 2.3 348 13
2006-08-30 07:05:58 51°19.068 2°53.127 343.6 2.4 349 13.2
2006-08-30 07:06:03 51°19.072 2°53.126 341.8 2.2 342 13.3
2006-08-30 07:06:08 51°19.075 2°53.124 340.7 2.3 344 13.3
2006-08-30 07:06:13 51°19.077 2°53.122 338.8 2.3 339 13.2
2006-08-30 07:06:18 51°19.08 2°53.121 336.5 2.3 340 13.2
2006-08-30 07:06:23 51°19.083 2°53.119 334.2 2.2 342 13.1
2006-08-30 07:06:28 51°19.086 2°53.117 331.9 2.3 335 13.1
2006-08-30 07:06:34 51°19.089 2°53.115 330 2.1 334 13
2006-08-30 07:06:38 51°19.09 2°53.113 328.3 2.2 329 12.9
2006-08-30 07:06:43 51°19.093 2°53.111 327.3 2.1 333 13
2006-08-30 07:06:49 51°19.096 2°53.108 326.6 2 331 13
2006-08-30 07:06:53 51°19.098 2°53.106 325.6 2 331 13.1
2006-08-30 07:06:58 51°19.1 2°53.104 325 2 329 13.1
2006-08-30 07:07:03 51°19.103 2°53.101 324.5 2.2 323 13
2006-08-30 07:07:08 51°19.105 2°53.097 322.9 2.1 319 13
2006-08-30 07:07:13 51°19.107 2°53.094 321.7 2.2 319 13.1
2006-08-30 07:07:18 51°19.109 2°53.091 320.8 2.2 318 13.1
2006-08-30 07:07:23 51°19.112 2°53.087 320.3 2.3 320 13.3
2006-08-30 07:07:28 51°19.114 2°53.083 319.8 2.3 317 13.3
2006-08-30 07:07:33 51°19.117 2°53.08 319.2 2.5 320 13.3
2006-08-30 07:07:38 51°19.119 2°53.077 319.3 2.5 317 13.3
2006-08-30 07:07:43 51°19.121 2°53.074 320.8 2.3 318 13.2
2006-08-30 07:07:49 51°19.124 2°53.071 322.9 1.9 322 13.2
2006-08-30 07:07:53 51°19.125 2°53.07 324.9 1.7 325 13.2
2006-08-30 07:07:58 51°19.127 2°53.069 326.3 1.5 330 13.1
2006-08-30 07:08:03 51°19.129 2°53.067 327 1.3 325 13.2
2006-08-30 07:08:08 51°19.13 2°53.065 328.1 1.1 336 13.3
2006-08-30 07:08:13 51°19.132 2°53.065 330.3 1 351 13.3
2006-08-30 07:08:18 51°19.132 2°53.066 332.2 0.7 6 13.4
2006-08-30 07:08:23 51°19.133 2°53.066 334 0.6 23 13.5
2006-08-30 07:08:28 51°19.134 2°53.067 336.6 0.5 46 13.3
2006-08-30 07:08:31 51°19.134 2°53.067 340.7 0.5 61 13.3
2006-08-30 07:08:38 51°19.134 2°53.068 343.2 0.4 67 13.3
2006-08-30 07:08:43 51°19.134 2°53.07 345.7 0.5 80 13.3
2006-08-30 07:08:48 51°19.134 2°53.071 349.1 0.5 82 13.4
2006-08-30 07:08:53 51°19.134 2°53.071 352.2 0.5 76 13.4
2006-08-30 07:08:58 51°19.134 2°53.073 356.6 0.7 79 13.3
2006-08-30 07:09:03 51°19.134 2°53.074 -999 0.5 87 13.2
2006-08-30 07:09:08 51°19.134 2°53.076 2.3 0.6 87 13.3
2006-08-30 07:09:14 51°19.135 2°53.077 5 0.6 94 13.4
2006-08-30 07:09:18 51°19.135 2°53.079 7.8 0.9 92 -999
2006-08-30 07:09:24 51°19.134 2°53.081 11.6 0.7 98 -999
2006-08-30 07:09:29 51°19.134 2°53.082 14.5 0.6 107 -999
2006-08-30 07:09:34 51°19.133 2°53.083 16.1 0.5 127 13.3
2006-08-30 07:09:38 51°19.133 2°53.084 19.5 0.7 126 13
2006-08-30 07:09:42 51°19.133 2°53.087 23 0.9 108 12.8
2006-08-30 07:09:47 51°19.132 2°53.089 26 1.2 116 12.7
2006-08-30 07:09:54 51°19.131 2°53.09 28 0.6 134 12.7
2006-08-30 07:09:58 51°19.131 2°53.09 29.7 0.6 136 12.8
2006-08-30 07:10:03 51°19.13 2°53.092 33.1 0.7 126 13.1
2006-08-30 07:10:08 51°19.13 2°53.093 35.5 0.7 123 13.2
2006-08-30 07:10:13 51°19.129 2°53.094 37 0.6 128 13.3
2006-08-30 07:10:18 51°19.128 2°53.095 39.2 0.9 136 13.5
2006-08-30 07:10:23 51°19.128 2°53.096 41.3 0.3 139 13.4
2006-08-30 07:10:28 51°19.128 2°53.096 42.2 0.9 136 13.4
2006-08-30 07:10:33 51°19.127 2°53.098 43.9 0.6 116 13.3
2006-08-30 07:10:38 51°19.126 2°53.099 44.9 0.9 134 13.2
2006-08-30 07:10:43 51°19.125 2°53.1 46.6 0.5 135 13.2
2006-08-30 07:10:48 51°19.125 2°53.101 47.9 0.7 130 13.2
2006-08-30 07:10:53 51°19.124 2°53.102 49.5 0.4 119 13.1
2006-08-30 07:10:58 51°19.124 2°53.103 50.7 0.6 136 13.2
2006-08-30 07:11:03 51°19.123 2°53.105 51.9 0.5 112 13.2
2006-08-30 07:11:08 51°19.123 2°53.106 52.1 0.5 108 13.1
2006-08-30 07:11:13 51°19.123 2°53.107 51.5 0.8 121 13
2006-08-30 07:11:18 51°19.122 2°53.109 52.3 0.8 116 13
2006-08-30 07:11:23 51°19.122 2°53.109 52.4 0.3 76 13
2006-08-30 07:11:28 51°19.121 2°53.111 52.3 0.9 127 13.1
2006-08-30 07:11:33 51°19.121 2°53.112 53.4 0.7 116 13.1
2006-08-30 07:11:38 51°19.12 2°53.113 53.8 0.6 118 13.1
2006-08-30 07:11:43 51°19.12 2°53.114 54.6 0.6 123 13.2
2006-08-30 07:11:48 51°19.119 2°53.115 54.6 0.5 117 13.1
2006-08-30 07:11:53 51°19.119 2°53.117 55.1 0.6 118 13.1
2006-08-30 07:11:58 51°19.118 2°53.118 55.8 0.4 116 13.1
2006-08-30 07:12:02 51°19.118 2°53.118 55.2 0.7 135 13.1
2006-08-30 07:12:09 51°19.117 2°53.12 54.5 0.5 129 13.2
2006-08-30 07:12:13 51°19.117 2°53.121 54.5 0.5 113 13
2006-08-30 07:12:18 51°19.117 2°53.121 55.4 0.4 96 12.9
2006-08-30 07:12:23 51°19.116 2°53.123 55.7 1 120 12.8
2006-08-30 07:12:28 51°19.115 2°53.124 55.9 0.8 125 12.8
2006-08-30 07:12:33 51°19.116 2°53.125 54.5 0.3 94 12.9
2006-08-30 07:12:38 51°19.115 2°53.126 53.6 0.7 116 13
2006-08-30 07:12:42 51°19.115 2°53.127 53.7 0.2 109 13
2006-08-30 07:12:48 51°19.114 2°53.129 52.9 0.7 120 13.1
2006-08-30 07:12:54 51°19.114 2°53.129 52.5 0.5 105 13.2
2006-08-30 07:12:58 51°19.113 2°53.131 51.7 0.6 114 13.2
2006-08-30 07:13:03 51°19.114 2°53.13 49.8 0.2 102 13.1
2006-08-30 07:13:08 51°19.113 2°53.132 47.7 0.8 127 13.2
2006-08-30 07:13:13 51°19.112 2°53.133 46.5 0.4 110 13.1
2006-08-30 07:13:18 51°19.112 2°53.134 46.1 0.4 108 13.1
2006-08-30 07:13:23 51°19.112 2°53.135 45.5 0.5 119 12.9
2006-08-30 07:13:28 51°19.112 2°53.137 45.6 0.7 112 12.9
2006-08-30 07:13:33 51°19.111 2°53.139 45.7 0.9 114 13
2006-08-30 07:13:38 51°19.11 2°53.14 45.5 1 124 12.9
2006-08-30 07:13:43 51°19.11 2°53.14 43.9 0.6 132 12.7
2006-08-30 07:13:49 51°19.11 2°53.142 43.4 0.5 141 12.4
2006-08-30 07:13:53 51°19.11 2°53.142 44.2 0.5 128 12.5
2006-08-30 07:13:58 51°19.109 2°53.144 44.2 0.8 121 12.7
2006-08-30 07:14:03 51°19.108 2°53.145 43.8 0.2 126 12.9
2006-08-30 07:14:08 51°19.108 2°53.144 42.3 0.1 116 12.9
2006-08-30 07:14:13 51°19.107 2°53.146 42 1.1 124 13
2006-08-30 07:14:18 51°19.107 2°53.148 42.6 0.6 128 13.1
2006-08-30 07:14:23 51°19.106 2°53.148 41.6 0.5 136 13
2006-08-30 07:14:29 51°19.105 2°53.15 41 0.8 129 13
2006-08-30 07:14:33 51°19.105 2°53.15 41.7 0.5 135 13
2006-08-30 07:14:38 51°19.105 2°53.151 41 0.4 121 12.9
2006-08-30 07:14:43 51°19.104 2°53.152 41.6 0.9 124 13.1
2006-08-30 07:14:48 51°19.104 2°53.153 41.8 0.5 139 13.1
2006-08-30 07:14:53 51°19.104 2°53.154 41.7 0.7 127 13.2
2006-08-30 07:14:58 51°19.102 2°53.155 42.2 0.6 146 13.3
2006-08-30 07:15:03 51°19.102 2°53.156 42 0.7 141 13.2
2006-08-30 07:15:08 51°19.102 2°53.157 42.7 0.5 137 13.1
2006-08-30 07:15:13 51°19.101 2°53.158 43.3 0.8 133 13
2006-08-30 07:15:18 51°19.101 2°53.159 43.5 0.4 147 13.1
2006-08-30 07:15:23 51°19.1 2°53.16 43.6 0.5 146 13.1
2006-08-30 07:15:28 51°19.099 2°53.161 43.4 0.6 148 13.1
2006-08-30 07:15:33 51°19.099 2°53.162 44.4 0.4 137 13
2006-08-30 07:15:38 51°19.098 2°53.163 45.1 0.7 133 13
2006-08-30 07:15:43 51°19.098 2°53.163 45.1 0.4 141 12.9
2006-08-30 07:15:48 51°19.097 2°53.164 44.3 0.7 141 13
2006-08-30 07:15:53 51°19.096 2°53.165 45 0.4 154 13
2006-08-30 07:15:58 51°19.095 2°53.166 45.2 0.6 144 12.8
2006-08-30 07:16:03 51°19.095 2°53.167 45.7 0.5 133 12.7
2006-08-30 07:16:08 51°19.094 2°53.168 48.1 0.7 132 12.7
2006-08-30 07:16:13 51°19.094 2°53.168 48.4 0.3 127 12.6
2006-08-30 07:16:18 51°19.093 2°53.17 48.3 1 138 12.8
2006-08-30 07:16:23 51°19.092 2°53.17 48.9 0.2 163 12.9
2006-08-30 07:16:29 51°19.092 2°53.171 48.4 0.9 141 13
2006-08-30 07:16:33 51°19.091 2°53.172 49.1 0.6 146 13
2006-08-30 07:16:38 51°19.091 2°53.172 49.4 0.5 138 12.9
2006-08-30 07:16:43 51°19.09 2°53.173 49.8 0.7 132 12.9
2006-08-30 07:16:48 51°19.089 2°53.174 50.3 0.5 137 13
2006-08-30 07:16:53 51°19.088 2°53.175 50 0.6 140 12.9
2006-08-30 07:16:58 51°19.088 2°53.175 50 0.4 148 13
2006-08-30 07:17:03 51°19.087 2°53.177 50 0.5 144 13.1
2006-08-30 07:17:08 51°19.087 2°53.177 50.5 0.4 143 13.1
2006-08-30 07:17:11 51°19.086 2°53.178 50.2 0.8 130 13
2006-08-30 07:17:18 51°19.086 2°53.179 50.6 0.4 109 12.7
2006-08-30 07:17:23 51°19.085 2°53.18 50.4 0.8 125 12.7
2006-08-30 07:17:28 51°19.084 2°53.181 50.1 0.5 149 12.5
2006-08-30 07:17:33 51°19.084 2°53.181 48.8 0.4 145 12.3
2006-08-30 07:17:38 51°19.082 2°53.182 48.6 0.8 135 12.4
2006-08-30 07:17:43 51°19.082 2°53.182 48.6 0.5 159 12.5
2006-08-30 07:17:48 51°19.082 2°53.183 48.9 0.7 130 12.5
2006-08-30 07:17:54 51°19.081 2°53.183 49.6 0.8 136 12.7
2006-08-30 07:17:58 51°19.079 2°53.186 50.9 1.2 147 12.5
2006-08-30 07:18:03 51°19.078 2°53.187 51.4 0.9 165 12.3
2006-08-30 07:18:08 51°19.078 2°53.186 50.9 0.6 180 12.1
2006-08-30 07:18:13 51°19.077 2°53.187 53.9 0.5 161 12
2006-08-30 07:18:18 51°19.076 2°53.188 54.6 0.7 160 12.3
2006-08-30 07:18:23 51°19.076 2°53.189 53.9 0.5 168 12.8
2006-08-30 07:18:28 51°19.074 2°53.189 53.6 0.9 156 13.2
2006-08-30 07:18:33 51°19.074 2°53.189 54.1 0.3 171 13.4
2006-08-30 07:18:38 51°19.073 2°53.19 54.2 0.6 145 13.4
2006-08-30 07:18:43 51°19.073 2°53.19 55.1 0.4 145 13.3
2006-08-30 07:18:48 51°19.072 2°53.19 55 0.2 207 13
2006-08-30 07:18:53 51°19.071 2°53.192 54.2 1.3 149 12.9
2006-08-30 07:18:58 51°19.07 2°53.193 53.1 0.7 154 12.8
2006-08-30 07:19:03 51°19.07 2°53.193 53.2 0.2 168 12.6
2006-08-30 07:19:08 51°19.07 2°53.193 53.1 1 148 12.8
2006-08-30 07:19:13 51°19.069 2°53.195 53.3 0.7 147 12.9
2006-08-30 07:19:18 51°19.068 2°53.196 52.9 0.5 133 12.9
2006-08-30 07:19:23 51°19.068 2°53.197 52.2 0.4 87 12.9
2006-08-30 07:19:29 51°19.069 2°53.198 52.1 0.7 89 13
2006-08-30 07:19:33 51°19.068 2°53.201 50.3 1 86 13.1
2006-08-30 07:19:38 51°19.069 2°53.203 49.6 1.2 68 13.2
2006-08-30 07:19:43 51°19.07 2°53.207 46.8 1.6 68 13.2
2006-08-30 07:19:48 51°19.072 2°53.209 44.5 1.8 49 13
2006-08-30 07:19:53 51°19.074 2°53.213 42.1 1.8 37 12.9
2006-08-30 07:19:58 51°19.077 2°53.216 39.1 2.4 40 12.8
2006-08-30 07:20:03 51°19.08 2°53.22 36.9 2.7 40 12.8
2006-08-30 07:20:08 51°19.082 2°53.222 32.8 2.7 35 12.7
2006-08-30 07:20:13 51°19.086 2°53.226 29.8 2.8 36 12.9
2006-08-30 07:20:18 51°19.09 2°53.23 28.3 3 31 12.9
2006-08-30 07:20:23 51°19.094 2°53.233 26.7 3.1 31 12.8
2006-08-30 07:20:28 51°19.098 2°53.238 26.8 3.4 34 12.7
2006-08-30 07:20:33 51°19.103 2°53.241 27.6 3.5 22 12.5
2006-08-30 07:20:38 51°19.107 2°53.244 28.3 3.9 34 12.5
2006-08-30 07:20:43 51°19.112 2°53.249 28.3 4 32 12.5
2006-08-30 07:20:49 51°19.118 2°53.255 28.3 4.3 31 12.7
2006-08-30 07:20:53 51°19.122 2°53.259 28.3 4.4 29 12.7
2006-08-30 07:20:58 51°19.128 2°53.264 29.6 4.6 28 12.8
2006-08-30 07:21:02 51°19.133 2°53.268 30.1 4.8 28 13
2006-08-30 07:21:08 51°19.14 2°53.274 31.1 4.9 32 13.1
2006-08-30 07:21:13 51°19.146 2°53.28 31.8 4.9 29 13.1
2006-08-30 07:21:18 51°19.152 2°53.285 31.4 5 28 13.1
2006-08-30 07:21:23 51°19.158 2°53.291 32.8 5.1 32 13
2006-08-30 07:21:28 51°19.163 2°53.297 33.3 5.3 32 12.9
2006-08-30 07:21:32 51°19.168 2°53.301 32.7 5 33 13.1
2006-08-30 07:21:38 51°19.176 2°53.31 33.8 5.1 31 12.9
2006-08-30 07:21:43 51°19.182 2°53.317 34.2 5.4 33 12.9
2006-08-30 07:21:48 51°19.188 2°53.322 34.2 5.3 30 12.9
2006-08-30 07:21:51 51°19.193 2°53.325 32.7 5.3 30 13
2006-08-30 07:21:58 51°19.201 2°53.334 31.8 5.2 29 13.1
2006-08-30 07:22:03 51°19.207 2°53.339 29.5 5.1 30 12.7
2006-08-30 07:22:08 51°19.214 2°53.345 30.7 5.3 27 12.5
2006-08-30 07:22:14 51°19.223 2°53.353 31.2 5.3 28 12.3
2006-08-30 07:22:18 51°19.228 2°53.357 31.2 5.3 30 12.6
2006-08-30 07:22:23 51°19.234 2°53.363 31.4 5.2 36 12.8
2006-08-30 07:22:28 51°19.239 2°53.369 32.5 5 33 12.9
2006-08-30 07:22:33 51°19.244 2°53.375 33.9 4.7 33 13.1
2006-08-30 07:22:38 51°19.25 2°53.38 34.4 4.5 32 13.5
2006-08-30 07:22:43 51°19.254 2°53.384 33.8 4.2 36 13.3
2006-08-30 07:22:48 51°19.258 2°53.389 35.1 4 33 13
2006-08-30 07:22:53 51°19.262 2°53.394 36.7 3.6 36 12.7
2006-08-30 07:22:58 51°19.266 2°53.4 39.1 3.3 38 12.4
2006-08-30 07:23:03 51°19.27 2°53.404 39.1 3.2 38 12.6
2006-08-30 07:23:08 51°19.273 2°53.408 38.3 3.1 37 12.9
2006-08-30 07:23:13 51°19.276 2°53.412 37.2 2.9 37 13.2
2006-08-30 07:23:18 51°19.279 2°53.415 36.4 2.7 32 13.6
2006-08-30 07:23:22 51°19.281 2°53.417 35.6 2.5 36 13.7
2006-08-30 07:23:28 51°19.285 2°53.421 34.8 2.5 37 13.8
2006-08-30 07:23:33 51°19.287 2°53.424 34.2 2.3 34 13.6
2006-08-30 07:23:38 51°19.289 2°53.427 34.7 2.2 37 13.4
2006-08-30 07:23:43 51°19.292 2°53.429 36.3 2 44 13.2
2006-08-30 07:23:48 51°19.293 2°53.432 37 1.5 41 13.2
2006-08-30 07:23:53 51°19.294 2°53.434 35.7 1.3 44 13
2006-08-30 07:23:58 51°19.295 2°53.436 35.5 1.1 57 13.2
2006-08-30 07:24:03 51°19.296 2°53.437 35.5 0.7 67 13.4
2006-08-30 07:24:08 51°19.295 2°53.439 35.3 0.9 107 13.2
2006-08-30 07:24:13 51°19.295 2°53.439 37.2 0.4 116 13
2006-08-30 07:24:18 51°19.294 2°53.441 39 0.6 115 13
2006-08-30 07:24:23 51°19.294 2°53.442 40.6 0.7 118 13.3
2006-08-30 07:24:28 51°19.293 2°53.443 42.4 0.6 129 13.3
2006-08-30 07:24:33 51°19.293 2°53.443 42.9 0.2 90 13.2
2006-08-30 07:24:38 51°19.293 2°53.445 44.7 0.7 107 13.1
2006-08-30 07:24:43 51°19.293 2°53.445 46.9 0.2 69 13.1
2006-08-30 07:24:48 51°19.292 2°53.447 46.5 0.9 125 13.2
2006-08-30 07:24:53 51°19.291 2°53.449 46.8 0.5 130 13.1
2006-08-30 07:24:58 51°19.291 2°53.449 47.9 0.5 112 13
2006-08-30 07:25:03 51°19.291 2°53.451 49.6 0.8 123 12.9
2006-08-30 07:25:08 51°19.29 2°53.452 50.4 0.6 124 12.9
2006-08-30 07:25:13 51°19.29 2°53.454 50.1 0.7 128 12.8
2006-08-30 07:25:18 51°19.29 2°53.454 50.5 0.3 111 12.9
2006-08-30 07:25:23 51°19.289 2°53.456 51.5 1.1 131 13
2006-08-30 07:25:28 51°19.288 2°53.457 52.8 0.5 115 13.2
2006-08-30 07:25:33 51°19.287 2°53.458 53.4 1.1 140 13.2
2006-08-30 07:25:38 51°19.287 2°53.459 54.1 0.3 131 13.2
2006-08-30 07:25:43 51°19.286 2°53.46 55.1 0.9 133 13.1
2006-08-30 07:25:48 51°19.285 2°53.462 56.6 0.5 122 13
2006-08-30 07:25:53 51°19.285 2°53.462 56.7 0.6 133 13.1
2006-08-30 07:25:59 51°19.284 2°53.465 56.6 0.7 137 13.2
2006-08-30 07:26:03 51°19.284 2°53.464 56.6 0.3 118 13.2
2006-08-30 07:26:08 51°19.283 2°53.465 56.8 0.9 134 13.2
2006-08-30 07:26:13 51°19.282 2°53.467 57.3 0.7 137 13.3
2006-08-30 07:26:18 51°19.281 2°53.468 56.5 0.8 140 13
2006-08-30 07:26:22 51°19.281 2°53.469 56.9 0.7 135 12.9
2006-08-30 07:26:28 51°19.28 2°53.47 57.5 0.8 140 12.9
2006-08-30 07:26:32 51°19.28 2°53.47 57.2 0.4 148 13
2006-08-30 07:26:38 51°19.279 2°53.472 56.1 1 144 12.9
2006-08-30 07:26:43 51°19.278 2°53.474 55.8 0.7 136 12.9
2006-08-30 07:26:48 51°19.278 2°53.474 56.5 0.6 124 12.8
2006-08-30 07:26:53 51°19.277 2°53.475 56 1 135 12.8
2006-08-30 07:26:58 51°19.276 2°53.477 55.7 0.8 135 12.9
2006-08-30 07:27:03 51°19.275 2°53.478 54.6 0.7 134 13
2006-08-30 07:27:08 51°19.274 2°53.48 54.9 0.9 129 13
2006-08-30 07:27:13 51°19.273 2°53.481 54.7 0.6 125 12.9
2006-08-30 07:27:18 51°19.273 2°53.481 54.2 0.5 136 12.9
2006-08-30 07:27:24 51°19.273 2°53.483 53.5 0.8 133 13
2006-08-30 07:27:28 51°19.272 2°53.485 52.8 0.6 136 13
2006-08-30 07:27:33 51°19.272 2°53.485 52.2 0.2 97 12.8
2006-08-30 07:27:38 51°19.271 2°53.486 51.4 1.1 131 12.9
2006-08-30 07:27:42 51°19.271 2°53.487 50.7 0.4 117 12.9
2006-08-30 07:27:49 51°19.27 2°53.489 49.6 1.4 128 12.8
2006-08-30 07:27:53 51°19.269 2°53.491 50.3 0.8 124 12.7
2006-08-30 07:27:58 51°19.269 2°53.492 50 0.2 118 12.6
2006-08-30 07:28:02 51°19.269 2°53.492 48.9 0.7 125 12.8
2006-08-30 07:28:08 51°19.269 2°53.494 48.4 0.6 121 12.9
2006-08-30 07:28:13 51°19.268 2°53.495 47.5 0.8 118 13.1
2006-08-30 07:28:18 51°19.268 2°53.496 46.7 0.5 118 13.2
2006-08-30 07:28:23 51°19.267 2°53.497 45.7 0.5 118 13.3
2006-08-30 07:28:28 51°19.266 2°53.499 44.5 0.6 132 13.1
2006-08-30 07:28:33 51°19.266 2°53.499 44.2 0.3 122 12.9
2006-08-30 07:28:38 51°19.266 2°53.5 44.3 0.5 128 12.8
2006-08-30 07:28:43 51°19.266 2°53.502 44.6 0.3 120 12.7
2006-08-30 07:28:48 51°19.266 2°53.503 44 0.7 127 12.9
2006-08-30 07:28:53 51°19.266 2°53.503 43.5 0.4 105 12.9
2006-08-30 07:28:58 51°19.265 2°53.504 42.8 0.6 110 12.7
2006-08-30 07:29:03 51°19.263 2°53.507 43.8 1.4 124 12.4
2006-08-30 07:29:08 51°19.263 2°53.507 44.4 0.2 157 12.2
2006-08-30 07:29:13 51°19.262 2°53.508 43.6 0.5 157 12.2
2006-08-30 07:29:19 51°19.262 2°53.509 43 0.1 186 12.4
2006-08-30 07:29:23 51°19.262 2°53.509 41.9 0.5 128 12.8
2006-08-30 07:29:28 51°19.261 2°53.511 41 0.7 127 13.2
2006-08-30 07:29:33 51°19.261 2°53.511 40.4 0.3 132 13.4
2006-08-30 07:29:38 51°19.26 2°53.512 39.4 0.5 144 13.4
2006-08-30 07:29:43 51°19.26 2°53.512 38.6 0.4 172 13.2
2006-08-30 07:29:48 51°19.259 2°53.513 38.3 0.6 141 13
2006-08-30 07:29:53 51°19.259 2°53.513 38.3 0.3 129 12.9
2006-08-30 07:29:58 51°19.259 2°53.515 38.1 1.1 121 12.9
2006-08-30 07:30:03 51°19.258 2°53.517 38.4 0.4 128 12.9
2006-08-30 07:30:08 51°19.257 2°53.517 37.1 0.3 140 12.9
2006-08-30 07:30:13 51°19.257 2°53.517 36.4 0.3 122 12.8
2006-08-30 07:30:18 51°19.257 2°53.519 37.2 0.7 120 13.1
2006-08-30 07:30:23 51°19.256 2°53.52 37.1 0.5 133 13.2
2006-08-30 07:30:28 51°19.256 2°53.52 36.4 0.4 137 13.1
2006-08-30 07:30:33 51°19.256 2°53.521 36.2 0.6 122 13.1
2006-08-30 07:30:38 51°19.255 2°53.523 36.4 0.5 130 13.2
2006-08-30 07:30:43 51°19.255 2°53.523 35.7 0.2 157 13
2006-08-30 07:30:48 51°19.254 2°53.523 35.3 0.7 126 13
2006-08-30 07:30:53 51°19.254 2°53.525 35.4 0.6 123 13.2
2006-08-30 07:30:58 51°19.254 2°53.526 34.2 0.5 129 13.1
2006-08-30 07:31:03 51°19.253 2°53.526 33.9 0.6 128 13
2006-08-30 07:31:08 51°19.253 2°53.528 34.3 0.6 138 13.1
2006-08-30 07:31:13 51°19.252 2°53.529 34.8 0.4 147 13
2006-08-30 07:31:18 51°19.251 2°53.529 34.3 0.4 181 12.9
2006-08-30 07:31:21 51°19.251 2°53.53 33.9 0.9 127 12.6
2006-08-30 07:31:28 51°19.25 2°53.531 34.6 0.5 160 12.6
2006-08-30 07:31:32 51°19.249 2°53.532 35.1 0.6 143 12.7
2006-08-30 07:31:38 51°19.249 2°53.533 34.6 0.6 137 12.8
2006-08-30 07:31:44 51°19.247 2°53.534 34.9 0.9 127 12.8
2006-08-30 07:31:48 51°19.247 2°53.535 35.2 0.5 130 12.9
2006-08-30 07:31:53 51°19.247 2°53.535 34.9 0.5 135 13
2006-08-30 07:31:58 51°19.246 2°53.537 34.8 0.6 135 13
2006-08-30 07:32:02 51°19.246 2°53.536 35.2 0.6 142 12.9
2006-08-30 07:32:09 51°19.245 2°53.538 34.8 0.6 167 12.8
2006-08-30 07:32:13 51°19.244 2°53.538 35 0.7 160 12.5
2006-08-30 07:32:18 51°19.243 2°53.54 37 0.8 148 12.2
2006-08-30 07:32:23 51°19.242 2°53.54 37.8 0.3 148 12
2006-08-30 07:32:29 51°19.242 2°53.54 37.1 0.2 191 12.1
2006-08-30 07:32:33 51°19.241 2°53.542 37.7 1.1 134 12.2
2006-08-30 07:32:38 51°19.241 2°53.542 40.1 0.2 185 12.4
2006-08-30 07:32:43 51°19.24 2°53.544 39.8 0.7 138 12.6
2006-08-30 07:32:48 51°19.239 2°53.544 40.9 0.5 146 13.1
2006-08-30 07:32:53 51°19.238 2°53.545 41.5 0.7 159 13.2
2006-08-30 07:32:58 51°19.238 2°53.545 41.5 0.4 191 13.1
2006-08-30 07:33:02 51°19.237 2°53.545 42 0.7 157 13.1
2006-08-30 07:33:08 51°19.236 2°53.546 43.2 0.5 179 13
2006-08-30 07:33:13 51°19.235 2°53.547 42.9 0.9 155 13.1
2006-08-30 07:33:18 51°19.234 2°53.548 43.2 0.8 161 13
2006-08-30 07:33:23 51°19.233 2°53.549 42.8 0.6 167 12.5
2006-08-30 07:33:28 51°19.233 2°53.549 44.1 0.5 156 12.4
2006-08-30 07:33:33 51°19.232 2°53.55 46.4 0.9 142 12.5
2006-08-30 07:33:38 51°19.231 2°53.55 46.4 0.4 176 12.6
2006-08-30 07:33:42 51°19.231 2°53.55 45.9 0.5 163 12.9
2006-08-30 07:33:48 51°19.23 2°53.551 46.2 0.7 150 13.1
2006-08-30 07:33:53 51°19.229 2°53.552 46.6 0.6 151 13.1
2006-08-30 07:33:58 51°19.229 2°53.552 47.1 0.6 149 13
2006-08-30 07:34:04 51°19.228 2°53.553 47.5 0.6 145 13
2006-08-30 07:34:08 51°19.227 2°53.554 47.6 1 147 13
2006-08-30 07:34:13 51°19.226 2°53.556 48.2 0.9 136 13
2006-08-30 07:34:18 51°19.225 2°53.556 48.4 0.7 150 12.6
2006-08-30 07:34:24 51°19.225 2°53.556 48.6 0.3 166 12.3
2006-08-30 07:34:28 51°19.224 2°53.558 48.8 1 146 12.5
2006-08-30 07:34:33 51°19.223 2°53.558 48.8 0.2 291 12.6
2006-08-30 07:34:38 51°19.222 2°53.559 48.2 0.6 139 12.7
2006-08-30 07:34:44 51°19.222 2°53.558 48.3 0.4 131 12.9
2006-08-30 07:34:48 51°19.221 2°53.56 47.8 1 139 13
2006-08-30 07:34:53 51°19.221 2°53.56 47.2 0.2 167 12.9
2006-08-30 07:34:58 51°19.221 2°53.56 45.5 0.4 167 12.9
2006-08-30 07:35:03 51°19.22 2°53.561 45.1 0.7 141 12.9
2006-08-30 07:35:08 51°19.219 2°53.562 45.4 0.7 139 12.9
2006-08-30 07:35:14 51°19.218 2°53.562 44.9 0.7 141 12.8
2006-08-30 07:35:18 51°19.217 2°53.564 44.8 0.2 165 12.7
2006-08-30 07:35:23 51°19.218 2°53.564 44.3 0.1 67 12.6
2006-08-30 07:35:28 51°19.218 2°53.566 43.7 0.8 104 12.6
2006-08-30 07:35:31 51°19.218 2°53.567 43.4 0.8 82 12.6
2006-08-30 07:35:38 51°19.218 2°53.57 43.2 1 71 12.7
2006-08-30 07:35:43 51°19.219 2°53.572 42 1.1 54 12.7
2006-08-30 07:35:48 51°19.22 2°53.575 41.9 1.6 59 12.7
2006-08-30 07:35:53 51°19.222 2°53.578 42 1.7 50 12.8
2006-08-30 07:35:58 51°19.224 2°53.582 41.5 2.2 48 12.8
2006-08-30 07:36:03 51°19.226 2°53.585 41.2 2.2 47 12.7
2006-08-30 07:36:08 51°19.229 2°53.589 39.6 2.5 51 12.8
2006-08-30 07:36:13 51°19.232 2°53.594 39.2 2.9 43 12.8
2006-08-30 07:36:18 51°19.235 2°53.599 39.3 3.3 46 12.8
2006-08-30 07:36:24 51°19.239 2°53.605 39.1 3.6 40 12.8
2006-08-30 07:36:28 51°19.242 2°53.608 37.9 3.5 39 12.5
2006-08-30 07:36:33 51°19.246 2°53.613 37 3.8 36 12.4
2006-08-30 07:36:38 51°19.25 2°53.619 36.8 4 46 12.2
2006-08-30 07:36:43 51°19.254 2°53.625 37.3 4.3 39 12.2
2006-08-30 07:36:48 51°19.26 2°53.633 37.8 4.9 41 12.3
2006-08-30 07:36:53 51°19.266 2°53.641 39.1 5.6 39 12.4
2006-08-30 07:36:58 51°19.273 2°53.65 40.4 5.9 43 12.5
2006-08-30 07:37:03 51°19.28 2°53.66 41.3 6.3 43 12.7
2006-08-30 07:37:08 51°19.287 2°53.67 39.5 6.7 37 12.7
2006-08-30 07:37:13 51°19.295 2°53.678 38.1 7 35 12.6
2006-08-30 07:37:18 51°19.303 2°53.688 39.1 7.4 37 12.6
2006-08-30 07:37:23 51°19.312 2°53.698 36.6 7.5 35 12.8
2006-08-30 07:37:28 51°19.321 2°53.709 36.7 7.8 35 12.9
2006-08-30 07:37:33 51°19.33 2°53.717 35.8 7.9 31 13
2006-08-30 07:37:38 51°19.339 2°53.728 36 8.1 36 13
2006-08-30 07:37:43 51°19.349 2°53.739 36 8.2 34 12.9
2006-08-30 07:37:48 51°19.358 2°53.75 36.8 8.3 37 13
2006-08-30 07:37:53 51°19.367 2°53.762 38.5 8.5 38 12.9
2006-08-30 07:37:58 51°19.377 2°53.772 39.6 8.6 37 12.8
2006-08-30 07:38:03 51°19.386 2°53.784 39.6 8.4 41 12.6
2006-08-30 07:38:08 51°19.394 2°53.796 39.5 8.4 40 12.4
2006-08-30 07:38:13 51°19.404 2°53.808 40.8 8.5 38 12.4
2006-08-30 07:38:18 51°19.412 2°53.82 42.1 8.4 40 12.4
2006-08-30 07:38:23 51°19.422 2°53.832 42 8.3 40 12.6
2006-08-30 07:38:29 51°19.432 2°53.847 42.8 8.5 41 12.7
2006-08-30 07:38:33 51°19.439 2°53.858 42.7 8.6 39 12.9
2006-08-30 07:38:38 51°19.448 2°53.869 44.4 8.6 42 12.8
2006-08-30 07:38:44 51°19.458 2°53.885 45 8.3 43 13
2006-08-30 07:38:47 51°19.462 2°53.893 44.9 7.9 48 13.1
2006-08-30 07:38:53 51°19.471 2°53.908 43.6 7.9 47 12.6
2006-08-30 07:38:58 51°19.479 2°53.919 45.2 7.6 44 12.4
2006-08-30 07:39:03 51°19.487 2°53.931 46.1 7.5 46 12.6
2006-08-30 07:39:08 51°19.494 2°53.943 45 7.5 43 12.7
2006-08-30 07:39:13 51°19.501 2°53.954 45.4 7.5 44 12.7
2006-08-30 07:39:18 51°19.509 2°53.965 47.4 7.5 44 13.1
2006-08-30 07:39:23 51°19.516 2°53.978 45.2 7.2 47 13.1
2006-08-30 07:39:29 51°19.524 2°53.99 44.9 7.2 43 13.2
2006-08-30 07:39:33 51°19.53 2°53.999 45.6 7.2 45 13.2
2006-08-30 07:39:38 51°19.538 2°54.009 44.1 7.2 43 13.3
2006-08-30 07:39:43 51°19.545 2°54.02 45 7.3 41 13.3
2006-08-30 07:39:48 51°19.552 2°54.031 44.2 7.1 45 13.4
2006-08-30 07:39:53 51°19.559 2°54.041 45.3 6.7 44 13.2
2006-08-30 07:39:58 51°19.565 2°54.05 45.6 6.2 44 12.8
2006-08-30 07:40:03 51°19.571 2°54.057 44.7 5.8 39 12.9
2006-08-30 07:40:08 51°19.576 2°54.066 43.7 5.5 42 13.1
2006-08-30 07:40:13 51°19.582 2°54.074 43.2 5.2 43 13.1
2006-08-30 07:40:18 51°19.587 2°54.081 43.2 4.9 46 13.2
2006-08-30 07:40:22 51°19.59 2°54.087 44.2 4.7 42 13.1
2006-08-30 07:40:28 51°19.595 2°54.096 45 4.4 48 13.2
2006-08-30 07:40:33 51°19.599 2°54.102 45.8 4.2 48 13.1
2006-08-30 07:40:38 51°19.603 2°54.108 48.6 3.9 50 13
2006-08-30 07:40:43 51°19.605 2°54.116 50.9 3.7 54 12.9
2006-08-30 07:40:48 51°19.608 2°54.122 50.7 3.4 54 12.9
2006-08-30 07:40:53 51°19.611 2°54.127 50.8 3.3 50 12.8
2006-08-30 07:40:58 51°19.614 2°54.133 50.8 3 54 13
2006-08-30 07:41:03 51°19.615 2°54.138 50.6 2.6 59 13.2
2006-08-30 07:41:08 51°19.617 2°54.142 50.2 2.3 50 13
2006-08-30 07:41:13 51°19.618 2°54.146 48.9 2 56 12.8
2006-08-30 07:41:18 51°19.619 2°54.148 48.9 1.6 58 12.8
2006-08-30 07:41:23 51°19.62 2°54.15 46.9 1 74 13
2006-08-30 07:41:29 51°19.62 2°54.153 43.9 1 100 13
2006-08-30 07:41:33 51°19.619 2°54.153 43 0.4 119 12.7
2006-08-30 07:41:38 51°19.618 2°54.154 43.4 0.9 153 12.6
2006-08-30 07:41:42 51°19.618 2°54.153 43.3 0.4 229 12.7
2006-08-30 07:41:49 51°19.616 2°54.153 41.9 0.7 175 12.8
2006-08-30 07:41:53 51°19.616 2°54.154 43.7 0.6 169 13.1
2006-08-30 07:41:58 51°19.615 2°54.154 44.5 0.5 181 13.3
2006-08-30 07:42:03 51°19.614 2°54.154 45 0.7 170 13.4
2006-08-30 07:42:08 51°19.613 2°54.154 45.2 0.7 171 13.4
2006-08-30 07:42:13 51°19.612 2°54.155 46.3 0.9 162 13.6
2006-08-30 07:42:18 51°19.611 2°54.156 46.8 1 162 13.4
2006-08-30 07:42:23 51°19.61 2°54.156 47.8 0.8 166 13.1
2006-08-30 07:42:28 51°19.609 2°54.157 48.4 0.8 160 12.8
2006-08-30 07:42:34 51°19.608 2°54.157 49.9 0.6 164 -999
2006-08-30 07:42:38 51°19.608 2°54.157 50.5 0.6 180 -999
2006-08-30 07:42:44 51°19.606 2°54.158 51.4 0.7 158 -999
2006-08-30 07:42:49 51°19.605 2°54.157 52 0.5 176 -999
2006-08-30 07:42:54 51°19.604 2°54.158 52.9 1.1 161 -999
2006-08-30 07:42:58 51°19.603 2°54.159 53.6 0.7 171 13
2006-08-30 07:43:03 51°19.602 2°54.16 53.1 1.2 153 13.2
2006-08-30 07:43:08 51°19.602 2°54.16 55.1 0.6 166 13.1
2006-08-30 07:43:12 51°19.601 2°54.16 54.7 0.6 174 13.1
2006-08-30 07:43:18 51°19.599 2°54.161 55.2 1.1 158 13.2
2006-08-30 07:43:23 51°19.598 2°54.161 55.9 0.7 167 13.1
2006-08-30 07:43:28 51°19.598 2°54.16 56.3 0.5 189 13.2
2006-08-30 07:43:33 51°19.597 2°54.161 56.1 0.8 169 13.1
2006-08-30 07:43:38 51°19.596 2°54.162 56.2 0.7 167 13
2006-08-30 07:43:41 51°19.596 2°54.162 56.7 0.9 162 12.9
2006-08-30 07:43:48 51°19.594 2°54.162 57.4 0.3 174 12.8
2006-08-30 07:43:53 51°19.593 2°54.164 57.5 0.9 152 12.8
2006-08-30 07:43:57 51°19.592 2°54.164 56.4 0.7 163 12.7
2006-08-30 07:44:03 51°19.591 2°54.165 56.5 0.5 165 12.6
2006-08-30 07:44:08 51°19.59 2°54.165 56.3 0.6 162 12.8
2006-08-30 07:44:13 51°19.589 2°54.166 56.5 0.9 153 12.9
2006-08-30 07:44:19 51°19.589 2°54.166 55.8 0.3 179 13
2006-08-30 07:44:23 51°19.588 2°54.166 55.1 1 163 13.2
2006-08-30 07:44:28 51°19.587 2°54.167 54.1 0.7 163 13.1
2006-08-30 07:44:33 51°19.586 2°54.167 54.2 0.6 159 13
2006-08-30 07:44:38 51°19.585 2°54.168 54.8 0.8 158 13.1
2006-08-30 07:44:43 51°19.584 2°54.169 54.3 0.7 156 13
2006-08-30 07:44:48 51°19.583 2°54.169 54 0.7 150 12.8
2006-08-30 07:44:53 51°19.582 2°54.17 54.4 1.1 146 12.8
2006-08-30 07:44:58 51°19.581 2°54.171 54.4 0.8 151 12.8
2006-08-30 07:45:04 51°19.58 2°54.172 52.7 0.7 151 12.7
2006-08-30 07:45:08 51°19.58 2°54.172 52.9 0.5 154 12.7
2006-08-30 07:45:13 51°19.579 2°54.172 52 0.8 154 12.9
2006-08-30 07:45:18 51°19.578 2°54.173 51.7 0.8 155 12.9
2006-08-30 07:45:23 51°19.578 2°54.173 50.9 0.9 155 13
2006-08-30 07:45:28 51°19.577 2°54.174 50.8 0.8 159 13
2006-08-30 07:45:33 51°19.576 2°54.175 50 0.9 155 13.1
2006-08-30 07:45:38 51°19.574 2°54.177 49.8 0.7 154 12.9
2006-08-30 07:45:44 51°19.574 2°54.176 49.1 0.2 251 12.8
2006-08-30 07:45:48 51°19.573 2°54.176 48.1 0.7 161 12.7
2006-08-30 07:45:54 51°19.573 2°54.177 47.1 1 154 12.8
2006-08-30 07:45:58 51°19.571 2°54.178 46.1 0.6 155 12.9
2006-08-30 07:46:03 51°19.571 2°54.178 45.7 0.6 156 12.9